Hodges, South Carolina
Current Conditions -  °F | °C
As of 10:56 AM on Friday 31 Oct 2014 (Local Time) from KGRD Reporting Station
Clear Clear  
Wind Chill: 54°   Ceiling: Unl
Heat Index: 54°   Visibility: 10mi
Dew Point: 44°   Wind: 6mph
Humidity: 69%   Direction: 60°ENE
Pressure: 29.95"   Gusts: NA
Location:  34.29°N, 82.25°W
Report Text: KGRD 311456Z AUTO 06005KT 10SM CLR 12/07 A2995 RMK AO2 SLP141 T01220067 58001
Loading
Personal Weather Stations






























Interactive Weather Map
Tropical Storm Tracking
New forecast layout! Learn more

10-Day Weather Forecast

Advertisements
Track Severe Weather on mobile